createdAt,value
2023-05-06T00:04:44.560Z,11.70
2023-05-06T00:09:47.536Z,10.23
2023-05-06T00:14:51.776Z,10.30
2023-05-06T00:19:54.641Z,9.83
2023-05-06T00:24:57.520Z,9.73
2023-05-06T00:30:01.775Z,10.60
2023-05-06T00:35:05.195Z,8.47
2023-05-06T00:40:09.824Z,9.40
2023-05-06T00:45:14.232Z,8.33
2023-05-06T00:50:17.504Z,11.13
2023-05-06T00:55:21.439Z,11.00
2023-05-06T01:00:26.317Z,11.70
2023-05-06T01:05:36.905Z,10.13
2023-05-06T01:10:46.162Z,9.47
2023-05-06T01:15:55.323Z,9.20
2023-05-06T01:20:59.231Z,8.87
2023-05-06T01:26:04.570Z,9.47
2023-05-06T01:31:12.418Z,9.47
2023-05-06T01:36:21.129Z,8.60
2023-05-06T01:41:27.085Z,8.87
2023-05-06T01:46:32.099Z,8.53
2023-05-06T01:51:35.347Z,9.80
2023-05-06T01:56:39.583Z,10.00
2023-05-06T02:01:42.574Z,9.77
2023-05-06T02:06:45.469Z,9.53
2023-05-06T02:11:53.091Z,8.90
2023-05-06T02:16:56.328Z,8.43
2023-05-06T02:21:59.273Z,8.27
2023-05-06T02:27:04.276Z,8.17
2023-05-06T02:32:07.536Z,10.40
2023-05-06T02:37:10.413Z,10.37
2023-05-06T02:42:16.335Z,9.20
2023-05-06T02:47:19.294Z,9.57
2023-05-06T02:52:22.324Z,9.50
2023-05-06T02:57:26.983Z,9.17
2023-05-06T03:02:29.913Z,9.20
2023-05-06T03:07:33.110Z,9.70
2023-05-06T03:12:37.530Z,10.73
2023-05-06T03:17:40.604Z,11.50
2023-05-06T03:22:43.922Z,10.87
2023-05-06T03:27:48.237Z,11.10
2023-05-06T03:32:56.097Z,11.87
2023-05-06T03:38:04.872Z,11.87
2023-05-06T03:43:16.535Z,11.43
2023-05-06T03:48:22.848Z,11.40
2023-05-06T03:53:26.686Z,11.07
2023-05-06T03:58:31.004Z,10.00
2023-05-06T04:03:36.873Z,10.13
2023-05-06T04:08:39.948Z,9.43
2023-05-06T04:13:44.367Z,10.87
2023-05-06T04:18:52.803Z,10.97
2023-05-06T04:23:56.029Z,11.80
2023-05-06T04:29:08.072Z,12.70
2023-05-06T04:34:16.993Z,13.50
2023-05-06T04:39:21.181Z,12.53
2023-05-06T04:44:27.211Z,12.30
2023-05-06T04:49:30.703Z,12.20
2023-05-06T04:54:33.818Z,12.73
2023-05-06T04:59:38.142Z,12.90
2023-05-06T05:04:41.343Z,13.20
2023-05-06T05:09:45.444Z,15.67
2023-05-06T05:14:50.054Z,16.47
2023-05-06T05:19:53.691Z,14.97
2023-05-06T05:24:57.338Z,16.73
2023-05-06T05:30:01.964Z,14.97
2023-05-06T05:35:10.383Z,14.30
2023-05-06T05:40:14.834Z,13.80
2023-05-06T05:45:21.188Z,14.80
2023-05-06T05:50:26.109Z,14.10
2023-05-06T05:55:30.688Z,13.37
2023-05-06T06:00:35.432Z,14.60
2023-05-06T06:05:46.261Z,13.73
2023-05-06T06:10:50.056Z,12.70
2023-05-06T06:15:58.961Z,13.40
2023-05-06T06:21:02.043Z,14.90
2023-05-06T06:26:05.508Z,14.00
2023-05-06T06:31:10.832Z,12.83
2023-05-06T06:36:14.480Z,12.53
2023-05-06T06:41:18.523Z,13.50
2023-05-06T06:46:22.829Z,12.40
2023-05-06T06:51:25.870Z,12.97
2023-05-06T06:56:28.802Z,12.67
2023-05-06T07:01:33.150Z,12.93
2023-05-06T07:06:36.371Z,13.50
2023-05-06T07:11:39.297Z,14.57
2023-05-06T07:16:45.427Z,15.00
2023-05-06T07:21:49.790Z,15.50
2023-05-06T07:26:52.722Z,16.13
2023-05-06T07:31:56.990Z,15.70
2023-05-06T07:36:59.897Z,16.70
2023-05-06T07:42:02.827Z,17.03
2023-05-06T07:47:07.442Z,19.30
2023-05-06T07:52:10.376Z,17.97
2023-05-06T07:57:13.219Z,18.80
2023-05-06T08:02:18.096Z,18.80
2023-05-06T08:07:21.239Z,20.10
2023-05-06T08:12:24.215Z,20.70
2023-05-06T08:17:28.581Z,23.07
2023-05-06T08:22:31.613Z,25.70
2023-05-06T08:27:34.522Z,22.20
2023-05-06T08:32:39.603Z,20.93
2023-05-06T08:37:42.582Z,24.07
2023-05-06T08:42:47.850Z,21.93
2023-05-06T08:47:52.931Z,20.97
2023-05-06T08:52:56.496Z,23.00
2023-05-06T08:58:00.021Z,22.60
2023-05-06T09:03:04.719Z,22.70
2023-05-06T09:08:07.781Z,23.10
2023-05-06T09:13:13.277Z,24.23
2023-05-06T09:18:17.921Z,23.97
2023-05-06T09:23:23.415Z,23.50
2023-05-06T09:28:34.080Z,21.63
2023-05-06T09:33:38.924Z,24.63
2023-05-06T09:38:42.034Z,21.40
2023-05-06T09:43:48.988Z,21.33
2023-05-06T09:48:54.647Z,19.90
2023-05-06T09:53:58.363Z,21.00
2023-05-06T09:59:04.272Z,19.87
2023-05-06T10:04:10.989Z,20.70
2023-05-06T10:09:14.717Z,18.83
2023-05-06T10:14:17.664Z,20.20
2023-05-06T10:19:26.696Z,19.10
2023-05-06T10:24:37.985Z,19.87
2023-05-06T10:29:42.530Z,22.13
2023-05-06T10:34:54.536Z,18.93
2023-05-06T10:39:57.752Z,18.93
2023-05-06T10:45:03.440Z,18.37
2023-05-06T10:50:23.415Z,19.27
2023-05-06T10:55:28.249Z,20.20
2023-05-06T11:00:35.432Z,20.53
2023-05-06T11:05:49.877Z,18.43
2023-05-06T11:10:53.055Z,18.47
2023-05-06T11:15:57.087Z,17.20
2023-05-06T11:21:33.158Z,17.87
2023-05-06T11:26:37.432Z,18.00
2023-05-06T11:31:42.378Z,17.10
2023-05-06T11:36:51.331Z,15.20
2023-05-06T11:41:55.693Z,15.83
2023-05-06T11:47:04.496Z,14.43
2023-05-06T11:52:09.265Z,12.60
2023-05-06T11:57:15.030Z,13.20
2023-05-06T12:02:20.365Z,12.70
2023-05-06T12:07:23.557Z,10.73
2023-05-06T12:12:28.113Z,9.90
2023-05-06T12:17:31.297Z,10.80
2023-05-06T12:22:34.228Z,10.97
2023-05-06T12:27:39.765Z,10.10
2023-05-06T12:32:58.112Z,10.57
2023-05-06T12:38:09.834Z,12.50
2023-05-06T12:43:14.133Z,14.40
2023-05-06T12:48:17.615Z,15.67
2023-05-06T12:53:33.170Z,16.43
2023-05-06T12:58:39.649Z,15.00
2023-05-06T13:03:42.600Z,15.53
2023-05-06T13:08:45.648Z,14.67
2023-05-06T13:13:49.922Z,14.60
2023-05-06T13:18:53.449Z,14.80
2023-05-06T13:23:56.383Z,14.87
2023-05-06T13:29:00.843Z,12.30
2023-05-06T13:34:04.106Z,10.10
2023-05-06T13:39:07.073Z,14.40
2023-05-06T13:44:11.407Z,15.97
2023-05-06T13:49:14.968Z,15.77
2023-05-06T13:54:17.854Z,14.60
2023-05-06T13:59:23.017Z,15.00
2023-05-06T14:04:26.622Z,14.80
2023-05-06T14:09:29.499Z,13.67
2023-05-06T14:14:33.736Z,15.63
2023-05-06T14:19:36.785Z,17.90
2023-05-06T14:24:39.714Z,16.20
2023-05-06T14:29:46.038Z,17.90
2023-05-06T14:34:48.936Z,18.70
2023-05-06T14:39:52.885Z,19.03
2023-05-06T14:44:57.670Z,19.77
2023-05-06T14:50:00.983Z,20.27
2023-05-06T14:55:05.061Z,19.57
2023-05-06T15:00:12.722Z,18.83
2023-05-06T15:05:16.373Z,19.30
2023-05-06T15:10:19.989Z,18.43
2023-05-06T15:15:24.547Z,18.80
2023-05-06T15:20:27.856Z,18.80
2023-05-06T15:25:36.232Z,18.80
2023-05-06T15:30:41.880Z,19.13
2023-05-06T15:35:44.974Z,18.67
2023-05-06T15:40:51.377Z,19.53
2023-05-06T15:45:55.653Z,18.67
2023-05-06T15:50:58.739Z,18.60
2023-05-06T15:56:13.167Z,19.30
2023-05-06T16:01:26.947Z,18.87
2023-05-06T16:06:43.620Z,18.03
2023-05-06T16:11:46.665Z,17.80
2023-05-06T16:16:51.131Z,18.00
2023-05-06T16:21:54.419Z,17.80
2023-05-06T16:26:57.545Z,19.20
2023-05-06T16:32:01.920Z,18.53
2023-05-06T16:37:07.506Z,18.80
2023-05-06T16:42:10.410Z,18.83
2023-05-06T16:47:14.770Z,17.67
2023-05-06T16:52:18.410Z,18.50
2023-05-06T16:57:21.392Z,17.60
2023-05-06T17:02:25.894Z,18.87
2023-05-06T17:07:28.931Z,18.50
2023-05-06T17:12:32.899Z,18.97
2023-05-06T17:17:37.236Z,21.00
2023-05-06T17:22:40.215Z,20.00
2023-05-06T17:27:43.252Z,19.80
2023-05-06T17:32:47.836Z,19.40
2023-05-06T17:37:51.376Z,20.77
2023-05-06T17:42:54.508Z,20.23
2023-05-06T17:47:58.805Z,20.40
2023-05-06T17:53:01.748Z,19.50
2023-05-06T17:58:04.613Z,17.17
2023-05-06T18:03:09.093Z,18.37
2023-05-06T18:08:12.575Z,19.30
2023-05-06T18:13:15.535Z,17.97
2023-05-06T18:18:19.891Z,17.80
2023-05-06T18:23:22.816Z,19.47
2023-05-06T18:28:25.724Z,17.77
2023-05-06T18:33:30.064Z,19.20
2023-05-06T18:38:32.959Z,18.53
2023-05-06T18:43:35.972Z,19.53
2023-05-06T18:48:40.276Z,17.80
2023-05-06T18:53:43.301Z,18.43
2023-05-06T18:58:46.392Z,17.30
2023-05-06T19:03:51.768Z,17.63
2023-05-06T19:08:54.797Z,15.83
2023-05-06T19:13:57.689Z,15.50
2023-05-06T19:19:07.236Z,16.30
2023-05-06T19:24:10.164Z,16.00
2023-05-06T19:29:14.626Z,15.87
2023-05-06T19:34:18.958Z,13.97
2023-05-06T19:39:22.470Z,14.53
2023-05-06T19:44:25.805Z,14.53
2023-05-06T19:49:32.354Z,14.37
2023-05-06T19:54:35.555Z,14.17
2023-05-06T19:59:38.607Z,14.23
2023-05-06T20:04:44.005Z,15.90
2023-05-06T20:09:46.920Z,15.37
2023-05-06T20:14:50.564Z,15.57
2023-05-06T20:19:57.262Z,15.07
2023-05-06T20:25:09.413Z,13.70
2023-05-06T20:30:12.996Z,14.30
2023-05-06T20:35:17.645Z,12.70
2023-05-06T20:40:20.650Z,11.07
2023-05-06T20:45:23.586Z,11.30
2023-05-06T20:50:29.904Z,11.03
2023-05-06T20:55:33.899Z,11.90
2023-05-06T21:00:36.857Z,11.40
2023-05-06T21:05:41.067Z,11.87
2023-05-06T21:10:43.970Z,11.77
2023-05-06T21:15:46.882Z,12.70
2023-05-06T21:20:51.244Z,11.23
2023-05-06T21:25:54.341Z,10.53
2023-05-06T21:30:57.239Z,8.10
2023-05-06T21:36:01.505Z,8.53
2023-05-06T21:41:04.477Z,9.60
2023-05-06T21:46:07.388Z,10.23
2023-05-06T21:51:11.673Z,10.83
2023-05-06T21:56:14.990Z,10.43
2023-05-06T22:01:18.125Z,11.43
2023-05-06T22:06:23.386Z,13.27
2023-05-06T22:11:26.459Z,11.20
2023-05-06T22:16:29.569Z,11.27
2023-05-06T22:21:34.594Z,10.77
2023-05-06T22:26:37.532Z,10.53
2023-05-06T22:31:40.450Z,12.80
2023-05-06T22:36:44.808Z,12.63
2023-05-06T22:41:48.963Z,12.37
2023-05-06T22:46:52.212Z,11.70
2023-05-06T22:51:57.041Z,11.73
2023-05-06T22:57:00.112Z,11.10
2023-05-06T23:02:03.257Z,11.20
2023-05-06T23:07:07.580Z,13.27
2023-05-06T23:12:10.443Z,11.90
2023-05-06T23:17:13.385Z,12.37
2023-05-06T23:22:17.738Z,11.20
2023-05-06T23:27:20.601Z,11.20
2023-05-06T23:32:23.499Z,10.07
2023-05-06T23:37:27.748Z,10.73
2023-05-06T23:42:34.319Z,10.87
2023-05-06T23:47:37.228Z,13.07
2023-05-06T23:52:41.516Z,12.63
2023-05-06T23:57:44.474Z,15.00
